createdAt,value
2017-03-17T00:00:30.577Z,0
2017-03-17T00:01:31.857Z,0
2017-03-17T00:02:33.096Z,0
2017-03-17T00:03:34.406Z,0
2017-03-17T00:04:35.662Z,0
2017-03-17T00:05:36.895Z,0
2017-03-17T00:06:38.263Z,0
2017-03-17T00:07:39.841Z,0
2017-03-17T00:08:40.985Z,0
2017-03-17T00:09:42.230Z,0
2017-03-17T00:10:43.503Z,0
2017-03-17T00:11:44.738Z,0
2017-03-17T00:12:46.003Z,0
2017-03-17T00:13:47.250Z,0
2017-03-17T00:14:48.535Z,0
2017-03-17T00:15:49.800Z,0
2017-03-17T00:16:51.045Z,0
2017-03-17T00:17:52.440Z,0
2017-03-17T00:18:53.795Z,0
2017-03-17T00:19:54.942Z,0
2017-03-17T00:20:56.183Z,0
2017-03-17T00:21:57.420Z,0
2017-03-17T00:22:58.670Z,0
2017-03-17T00:23:59.902Z,0
2017-03-17T00:25:01.151Z,0
2017-03-17T00:26:02.390Z,0
2017-03-17T00:27:03.626Z,0
2017-03-17T00:28:04.868Z,0
2017-03-17T00:29:06.114Z,0
2017-03-17T00:30:07.362Z,0
2017-03-17T00:31:08.593Z,0
2017-03-17T00:32:09.903Z,0
2017-03-17T00:33:11.142Z,0
2017-03-17T00:34:12.384Z,0
2017-03-17T00:35:13.646Z,0
2017-03-17T00:36:14.884Z,0
2017-03-17T00:37:16.119Z,0
2017-03-17T00:38:17.379Z,0
2017-03-17T00:39:18.648Z,0
2017-03-17T00:40:19.954Z,0
2017-03-17T00:41:21.199Z,0
2017-03-17T00:42:22.434Z,0
2017-03-17T00:43:23.680Z,0
2017-03-17T00:44:24.922Z,0
2017-03-17T00:45:26.192Z,0
2017-03-17T00:46:27.451Z,0
2017-03-17T00:47:28.778Z,0
2017-03-17T00:48:30.057Z,0
2017-03-17T00:49:31.289Z,0
2017-03-17T00:50:32.530Z,0
2017-03-17T00:51:33.804Z,0
2017-03-17T00:52:35.055Z,0
2017-03-17T00:53:36.306Z,0
2017-03-17T00:54:37.535Z,0
2017-03-17T00:55:38.791Z,0
2017-03-17T00:56:40.096Z,0
2017-03-17T00:57:41.269Z,0
2017-03-17T00:58:42.521Z,0
2017-03-17T00:59:43.843Z,0
2017-03-17T01:00:45.089Z,0
2017-03-17T01:01:46.374Z,0
2017-03-17T01:02:47.615Z,0
2017-03-17T01:03:48.860Z,0
2017-03-17T01:04:50.144Z,0
2017-03-17T01:05:51.461Z,0
2017-03-17T01:06:52.671Z,0
2017-03-17T01:07:53.912Z,0
2017-03-17T01:08:55.166Z,0
2017-03-17T01:09:56.388Z,0
2017-03-17T01:10:57.778Z,0
2017-03-17T01:11:58.948Z,0
2017-03-17T01:13:00.186Z,0
2017-03-17T01:14:01.420Z,0
2017-03-17T01:15:02.697Z,0
2017-03-17T01:16:03.922Z,0
2017-03-17T01:17:05.152Z,0
2017-03-17T01:18:06.434Z,0
2017-03-17T01:19:07.840Z,0
2017-03-17T01:20:09.011Z,0
2017-03-17T01:21:10.252Z,0
2017-03-17T01:22:11.519Z,0
2017-03-17T01:23:12.728Z,0
2017-03-17T01:24:13.980Z,0
2017-03-17T01:25:15.211Z,0
2017-03-17T01:26:16.462Z,0
2017-03-17T01:27:17.698Z,0
2017-03-17T01:28:18.954Z,0
2017-03-17T01:29:20.225Z,0
2017-03-17T01:30:21.475Z,0
2017-03-17T01:31:22.750Z,0
2017-03-17T01:32:23.973Z,0
2017-03-17T01:33:25.236Z,0
2017-03-17T01:34:26.578Z,0
2017-03-17T01:35:27.742Z,0
2017-03-17T01:36:28.987Z,0
2017-03-17T01:37:30.244Z,0
2017-03-17T01:38:31.489Z,0
2017-03-17T01:39:32.729Z,0
2017-03-17T01:40:33.967Z,0
2017-03-17T01:41:35.224Z,0
2017-03-17T01:42:36.485Z,0
2017-03-17T01:43:37.745Z,0
2017-03-17T01:44:39.028Z,0
2017-03-17T01:45:40.333Z,0
2017-03-17T01:46:41.591Z,0
2017-03-17T01:47:42.831Z,0
2017-03-17T01:48:44.098Z,0
2017-03-17T01:49:45.328Z,0
2017-03-17T01:50:46.617Z,0
2017-03-17T01:51:47.903Z,0
2017-03-17T01:52:49.133Z,0
2017-03-17T01:53:50.541Z,0
2017-03-17T01:54:51.753Z,0
2017-03-17T01:55:52.998Z,0
2017-03-17T01:56:54.235Z,0
2017-03-17T01:57:55.478Z,0
2017-03-17T01:58:56.723Z,0
2017-03-17T01:59:57.958Z,0
2017-03-17T02:00:59.207Z,0
2017-03-17T02:02:00.462Z,0
2017-03-17T02:03:01.723Z,0
2017-03-17T02:04:02.974Z,0
2017-03-17T02:05:04.209Z,0
2017-03-17T02:06:05.450Z,0
2017-03-17T02:07:06.712Z,0
2017-03-17T02:08:07.971Z,0
2017-03-17T02:09:09.183Z,0
2017-03-17T02:10:10.433Z,0
2017-03-17T02:11:11.709Z,0
2017-03-17T02:12:13.252Z,0
2017-03-17T02:13:14.490Z,0
2017-03-17T02:14:15.829Z,0
2017-03-17T02:15:17.079Z,0
2017-03-17T02:16:18.335Z,0
2017-03-17T02:17:19.555Z,0
2017-03-17T02:18:20.787Z,0
2017-03-17T02:19:22.024Z,0
2017-03-17T02:20:23.266Z,0
2017-03-17T02:21:24.540Z,0
2017-03-17T02:22:25.781Z,0
2017-03-17T02:23:27.028Z,0
2017-03-17T02:24:28.299Z,0
2017-03-17T02:25:29.514Z,0
2017-03-17T02:26:30.749Z,0
2017-03-17T02:27:32.068Z,0
2017-03-17T02:28:33.452Z,0
2017-03-17T02:29:34.606Z,0
2017-03-17T02:30:35.860Z,0
2017-03-17T02:31:37.102Z,0
2017-03-17T02:32:38.339Z,0
2017-03-17T02:33:39.612Z,0
2017-03-17T02:34:40.909Z,0
2017-03-17T02:35:42.143Z,0
2017-03-17T02:36:43.403Z,0
2017-03-17T02:37:44.785Z,0
2017-03-17T02:38:46.036Z,0
2017-03-17T02:39:47.266Z,0
2017-03-17T02:40:48.637Z,0
2017-03-17T02:41:49.926Z,0
2017-03-17T02:42:51.186Z,0
2017-03-17T02:43:52.406Z,0
2017-03-17T02:44:53.645Z,0
2017-03-17T02:45:54.911Z,0
2017-03-17T02:46:56.224Z,0
2017-03-17T02:47:57.480Z,0
2017-03-17T02:48:58.710Z,0
2017-03-17T02:49:59.958Z,0
2017-03-17T02:51:01.207Z,0
2017-03-17T02:52:02.467Z,0
2017-03-17T02:53:03.720Z,0
2017-03-17T02:54:04.973Z,0
2017-03-17T02:55:06.224Z,0
2017-03-17T02:56:07.477Z,0
2017-03-17T02:57:08.748Z,0
2017-03-17T02:58:10.010Z,0
2017-03-17T02:59:11.235Z,0
2017-03-17T03:00:12.480Z,0
2017-03-17T03:01:13.741Z,0
2017-03-17T03:02:15.047Z,0
2017-03-17T03:03:16.304Z,0
2017-03-17T03:04:17.553Z,0
2017-03-17T03:05:18.790Z,0
2017-03-17T03:06:20.037Z,0
2017-03-17T03:07:21.299Z,0
2017-03-17T03:08:22.573Z,0
2017-03-17T03:09:23.794Z,0
2017-03-17T03:10:25.069Z,0
2017-03-17T03:11:26.306Z,0
2017-03-17T03:12:27.588Z,0
2017-03-17T03:13:28.822Z,0
2017-03-17T03:14:30.072Z,0
2017-03-17T03:15:31.325Z,0
2017-03-17T03:16:32.662Z,0
2017-03-17T03:17:33.891Z,0
2017-03-17T03:18:35.138Z,0
2017-03-17T03:19:36.456Z,0
2017-03-17T03:20:37.694Z,0
2017-03-17T03:21:39.019Z,0
2017-03-17T03:22:40.173Z,0
2017-03-17T03:23:41.441Z,0
2017-03-17T03:24:42.689Z,0
2017-03-17T03:25:43.985Z,0
2017-03-17T03:26:45.276Z,0
2017-03-17T03:27:46.501Z,0
2017-03-17T03:28:47.738Z,0
2017-03-17T03:29:48.979Z,0
2017-03-17T03:30:50.224Z,0
2017-03-17T03:31:51.488Z,0
2017-03-17T03:32:52.789Z,0
2017-03-17T03:33:54.050Z,0
2017-03-17T03:34:55.265Z,0
2017-03-17T03:35:56.613Z,0
2017-03-17T03:36:57.892Z,0
2017-03-17T03:37:59.139Z,0
2017-03-17T03:39:00.441Z,0
2017-03-17T03:40:01.693Z,0
2017-03-17T03:41:02.932Z,0
2017-03-17T03:42:04.186Z,0
2017-03-17T03:43:05.523Z,0
2017-03-17T03:44:06.839Z,0
2017-03-17T03:45:08.116Z,0
2017-03-17T03:46:09.356Z,0
2017-03-17T03:47:10.673Z,0
2017-03-17T03:48:11.927Z,0
2017-03-17T03:49:13.169Z,0
2017-03-17T03:50:14.404Z,0
2017-03-17T03:51:15.641Z,0
2017-03-17T03:52:16.882Z,0
2017-03-17T03:53:18.121Z,0
2017-03-17T03:54:19.365Z,0
2017-03-17T03:55:20.675Z,0
2017-03-17T03:56:21.931Z,0
2017-03-17T03:57:23.148Z,0
2017-03-17T03:58:24.398Z,0
2017-03-17T03:59:25.657Z,0
2017-03-17T04:00:26.891Z,0
2017-03-17T04:01:28.313Z,0
2017-03-17T04:02:29.454Z,0
2017-03-17T04:03:30.699Z,0
2017-03-17T04:04:31.947Z,0
2017-03-17T04:05:33.188Z,0
2017-03-17T04:06:34.492Z,0
2017-03-17T04:07:35.733Z,0
2017-03-17T04:08:36.969Z,0
2017-03-17T04:09:38.323Z,0
2017-03-17T04:10:39.627Z,0
2017-03-17T04:11:40.873Z,0
2017-03-17T04:12:42.111Z,0
2017-03-17T04:13:43.355Z,0
2017-03-17T04:14:44.594Z,0
2017-03-17T04:15:45.914Z,0
2017-03-17T04:16:47.150Z,0
2017-03-17T04:17:48.393Z,0
2017-03-17T04:18:49.673Z,0
2017-03-17T04:19:50.888Z,0
2017-03-17T04:20:52.151Z,0
2017-03-17T04:21:53.382Z,0
2017-03-17T04:22:54.675Z,0
2017-03-17T04:23:55.949Z,0
2017-03-17T04:24:57.182Z,0
2017-03-17T04:25:58.442Z,0
2017-03-17T04:26:59.655Z,0
2017-03-17T04:28:00.899Z,0
2017-03-17T04:29:02.137Z,0
2017-03-17T04:30:03.458Z,0
2017-03-17T04:31:04.761Z,0
2017-03-17T04:32:05.980Z,0
2017-03-17T04:33:07.218Z,0
2017-03-17T04:34:08.488Z,0
2017-03-17T04:35:09.782Z,0
2017-03-17T04:36:10.997Z,0
2017-03-17T04:37:12.239Z,0
2017-03-17T04:38:13.468Z,0
2017-03-17T04:39:14.733Z,0
2017-03-17T04:40:16.085Z,0
2017-03-17T04:41:17.273Z,0
2017-03-17T04:42:18.538Z,0
2017-03-17T04:43:19.787Z,0
2017-03-17T04:44:21.077Z,0
2017-03-17T04:45:22.408Z,0
2017-03-17T04:46:23.617Z,0
2017-03-17T04:47:24.857Z,0
2017-03-17T04:48:26.126Z,0
2017-03-17T04:49:27.426Z,0
2017-03-17T04:50:28.722Z,0
2017-03-17T04:51:29.963Z,0
2017-03-17T04:52:31.238Z,0
2017-03-17T04:53:32.479Z,0
2017-03-17T04:54:33.724Z,0
2017-03-17T04:55:35.061Z,0
2017-03-17T04:56:36.400Z,0
2017-03-17T04:57:37.637Z,0
2017-03-17T04:58:38.858Z,0
2017-03-17T04:59:40.095Z,0
2017-03-17T05:00:41.338Z,0
2017-03-17T05:01:42.644Z,0
2017-03-17T05:02:43.897Z,0
2017-03-17T05:03:45.125Z,0
2017-03-17T05:04:46.475Z,0
2017-03-17T05:05:47.707Z,0
2017-03-17T05:06:48.993Z,0
2017-03-17T05:07:50.297Z,0
2017-03-17T05:08:51.564Z,0
2017-03-17T05:09:52.776Z,0
2017-03-17T05:10:54.052Z,0
2017-03-17T05:11:55.257Z,0
2017-03-17T05:12:56.621Z,0
2017-03-17T05:13:57.884Z,0
2017-03-17T05:14:59.159Z,0
2017-03-17T05:16:00.425Z,0
2017-03-17T05:17:01.672Z,0
2017-03-17T05:18:02.921Z,0
2017-03-17T05:19:04.177Z,0
2017-03-17T05:20:05.499Z,0
2017-03-17T05:21:06.703Z,0
2017-03-17T05:22:07.935Z,0
2017-03-17T05:23:09.194Z,0
2017-03-17T05:24:10.458Z,0
2017-03-17T05:25:11.703Z,0
2017-03-17T05:26:12.958Z,0
2017-03-17T05:27:14.283Z,0
2017-03-17T05:28:15.522Z,0
2017-03-17T05:29:16.779Z,0
2017-03-17T05:30:18.036Z,0
2017-03-17T05:31:19.262Z,0
2017-03-17T05:32:20.565Z,5
2017-03-17T05:33:21.786Z,0
2017-03-17T05:34:23.118Z,5
2017-03-17T05:35:24.359Z,5
2017-03-17T05:36:25.634Z,5
2017-03-17T05:37:26.885Z,5
2017-03-17T05:38:28.142Z,5
2017-03-17T05:39:29.383Z,5
2017-03-17T05:40:30.625Z,5
2017-03-17T05:41:31.874Z,5
2017-03-17T05:42:33.180Z,5
2017-03-17T05:43:34.493Z,5
2017-03-17T05:44:35.752Z,5
2017-03-17T05:45:37.006Z,5
2017-03-17T05:46:38.258Z,5
2017-03-17T05:47:39.500Z,5
2017-03-17T05:48:40.739Z,5
2017-03-17T05:49:42.123Z,5
2017-03-17T05:50:43.323Z,5
2017-03-17T05:51:44.682Z,10
2017-03-17T05:52:45.922Z,10
2017-03-17T05:53:47.176Z,10
2017-03-17T05:54:48.401Z,10
2017-03-17T05:55:49.640Z,10
2017-03-17T05:56:51.098Z,10
2017-03-17T05:57:52.360Z,10
2017-03-17T05:58:53.570Z,15
2017-03-17T05:59:54.808Z,15
2017-03-17T06:00:56.055Z,15
2017-03-17T06:01:57.284Z,15
2017-03-17T06:02:58.534Z,15
2017-03-17T06:03:59.788Z,15
2017-03-17T06:05:01.068Z,20
2017-03-17T06:06:02.312Z,20
2017-03-17T06:07:03.549Z,20
2017-03-17T06:08:04.788Z,30
2017-03-17T06:09:06.058Z,25
2017-03-17T06:10:07.321Z,30
2017-03-17T06:11:08.569Z,25
2017-03-17T06:12:09.810Z,25
2017-03-17T06:13:11.057Z,25
2017-03-17T06:14:12.323Z,30
2017-03-17T06:15:13.556Z,30
2017-03-17T06:16:14.813Z,30
2017-03-17T06:17:16.060Z,35
2017-03-17T06:18:17.321Z,35
2017-03-17T06:19:18.541Z,40
2017-03-17T06:20:19.780Z,40
2017-03-17T06:21:21.040Z,40
2017-03-17T06:22:22.368Z,40
2017-03-17T06:23:23.609Z,45
2017-03-17T06:24:24.869Z,45
2017-03-17T06:25:26.106Z,55
2017-03-17T06:26:27.365Z,65
2017-03-17T06:27:28.664Z,60
2017-03-17T06:28:29.907Z,60
2017-03-17T06:29:31.154Z,60
2017-03-17T06:30:32.411Z,60
2017-03-17T06:31:33.640Z,55
2017-03-17T06:32:34.874Z,50
2017-03-17T06:33:36.145Z,60
2017-03-17T06:34:37.373Z,45
2017-03-17T06:35:38.652Z,40
2017-03-17T06:36:39.887Z,45
2017-03-17T06:37:41.176Z,45
2017-03-17T06:38:42.501Z,45
2017-03-17T06:39:43.681Z,40
2017-03-17T06:40:44.957Z,35
2017-03-17T06:41:46.256Z,40
2017-03-17T06:42:47.502Z,40
2017-03-17T06:43:48.742Z,40
2017-03-17T06:44:50.024Z,35
2017-03-17T06:45:51.249Z,35
2017-03-17T06:46:52.530Z,35
2017-03-17T06:47:53.857Z,35
2017-03-17T06:48:55.117Z,30
2017-03-17T06:49:56.425Z,30
2017-03-17T06:50:57.680Z,40
2017-03-17T06:51:58.906Z,35
2017-03-17T06:53:00.176Z,30
2017-03-17T06:54:01.404Z,30
2017-03-17T06:55:02.670Z,45
2017-03-17T06:56:03.896Z,65
2017-03-17T06:57:05.138Z,55
2017-03-17T06:58:06.395Z,50
2017-03-17T06:59:07.652Z,45
2017-03-17T07:00:08.906Z,50
2017-03-17T07:01:10.160Z,50
2017-03-17T07:02:11.419Z,40
2017-03-17T07:03:12.694Z,35
2017-03-17T07:04:13.929Z,30
2017-03-17T07:05:15.196Z,30
2017-03-17T07:06:16.437Z,20
2017-03-17T07:07:17.683Z,30
2017-03-17T07:08:18.932Z,40
2017-03-17T07:09:20.191Z,45
2017-03-17T07:10:21.434Z,55
2017-03-17T07:11:22.682Z,45
2017-03-17T07:12:23.933Z,45
2017-03-17T07:13:25.172Z,60
2017-03-17T07:14:26.447Z,85
2017-03-17T07:15:27.708Z,100
2017-03-17T07:16:28.971Z,100
2017-03-17T07:17:30.214Z,105
2017-03-17T07:18:31.470Z,110
2017-03-17T07:19:32.722Z,100
2017-03-17T07:20:34.010Z,95
2017-03-17T07:21:35.256Z,110
2017-03-17T07:22:36.504Z,105
2017-03-17T07:23:37.742Z,95
2017-03-17T07:24:39.008Z,105
2017-03-17T07:25:40.280Z,110
2017-03-17T07:26:41.488Z,105
2017-03-17T07:27:42.733Z,130
2017-03-17T07:28:43.977Z,140
2017-03-17T07:29:45.210Z,130
2017-03-17T07:30:46.525Z,120
2017-03-17T07:31:47.783Z,130
2017-03-17T07:32:49.031Z,125
2017-03-17T07:33:50.314Z,130
2017-03-17T07:34:51.583Z,135
2017-03-17T07:35:52.841Z,170
2017-03-17T07:36:54.101Z,165
2017-03-17T07:37:55.387Z,150
2017-03-17T07:38:56.597Z,160
2017-03-17T07:39:57.835Z,150
2017-03-17T07:40:59.076Z,150
2017-03-17T07:42:00.317Z,185
2017-03-17T07:43:01.580Z,200
2017-03-17T07:44:02.814Z,245
2017-03-17T07:45:04.058Z,310
2017-03-17T07:46:05.327Z,340
2017-03-17T07:47:06.555Z,340
2017-03-17T07:48:07.796Z,335
2017-03-17T07:49:09.103Z,335
2017-03-17T07:50:10.470Z,355
2017-03-17T07:51:11.614Z,390
2017-03-17T07:52:12.958Z,390
2017-03-17T07:53:14.214Z,385
2017-03-17T07:54:15.505Z,345
2017-03-17T07:55:16.762Z,305
2017-03-17T07:56:18.002Z,295
2017-03-17T07:57:19.240Z,265
2017-03-17T07:58:20.566Z,275
2017-03-17T07:59:21.912Z,290
2017-03-17T08:00:23.162Z,310
2017-03-17T08:01:24.419Z,305
2017-03-17T08:02:25.665Z,310
2017-03-17T08:03:26.932Z,340
2017-03-17T08:04:28.211Z,340
2017-03-17T08:05:29.459Z,310
2017-03-17T08:06:30.711Z,305
2017-03-17T08:07:31.965Z,315
2017-03-17T08:08:33.204Z,345
2017-03-17T08:09:34.459Z,365
2017-03-17T08:10:35.724Z,390
2017-03-17T08:11:36.972Z,410
2017-03-17T08:12:38.337Z,425
2017-03-17T08:13:39.563Z,420
2017-03-17T08:14:40.817Z,385
2017-03-17T08:15:42.079Z,410
2017-03-17T08:16:43.310Z,410
2017-03-17T08:17:44.565Z,430
2017-03-17T08:18:45.843Z,450
2017-03-17T08:19:47.093Z,460
2017-03-17T08:20:48.340Z,475
2017-03-17T08:21:49.715Z,475
2017-03-17T08:22:51.018Z,435
2017-03-17T08:23:52.345Z,415
2017-03-17T08:24:53.591Z,400
2017-03-17T08:25:54.841Z,400
2017-03-17T08:26:56.081Z,390
2017-03-17T08:27:57.319Z,380
2017-03-17T08:28:58.649Z,360
2017-03-17T08:29:59.927Z,325
2017-03-17T08:31:01.168Z,325
2017-03-17T08:32:02.423Z,340
2017-03-17T08:33:03.665Z,340
2017-03-17T08:34:04.903Z,330
2017-03-17T08:35:06.153Z,355
2017-03-17T08:36:07.403Z,355
2017-03-17T08:37:08.649Z,365
2017-03-17T08:38:09.900Z,390
2017-03-17T08:39:11.142Z,415
2017-03-17T08:40:12.389Z,440
2017-03-17T08:41:13.687Z,505
2017-03-17T08:42:14.953Z,690
2017-03-17T08:43:16.189Z,635
2017-03-17T08:44:17.418Z,505
2017-03-17T08:45:18.675Z,550
2017-03-17T08:46:19.927Z,735
2017-03-17T08:47:21.176Z,1120
2017-03-17T08:48:22.452Z,830
2017-03-17T08:49:23.691Z,1050
2017-03-17T08:50:24.956Z,1235
2017-03-17T08:51:26.227Z,1305
2017-03-17T08:52:27.462Z,1275
2017-03-17T08:53:28.711Z,885
2017-03-17T08:54:30.040Z,705
2017-03-17T08:55:31.231Z,1115
2017-03-17T08:56:32.482Z,865
2017-03-17T08:57:33.748Z,1240
2017-03-17T08:58:34.995Z,610
2017-03-17T08:59:36.260Z,1175
2017-03-17T09:00:37.547Z,1130
2017-03-17T09:01:38.903Z,655
2017-03-17T09:02:40.288Z,495
2017-03-17T09:03:41.543Z,1175
2017-03-17T09:04:42.806Z,580
2017-03-17T09:05:44.057Z,1065
2017-03-17T09:06:45.302Z,520
2017-03-17T09:07:46.629Z,495
2017-03-17T09:08:47.876Z,1150
2017-03-17T09:09:49.123Z,1170
2017-03-17T09:10:50.369Z,345
2017-03-17T09:11:51.610Z,345
2017-03-17T09:12:52.913Z,385
2017-03-17T09:13:54.162Z,1215
2017-03-17T09:14:55.401Z,1235
2017-03-17T09:15:56.675Z,1330
2017-03-17T09:16:57.899Z,1350
2017-03-17T09:17:59.158Z,1410
2017-03-17T09:19:00.471Z,1540
2017-03-17T09:20:01.767Z,1615
2017-03-17T09:21:02.985Z,1645
2017-03-17T09:22:04.255Z,1695
2017-03-17T09:23:05.510Z,665
2017-03-17T09:24:06.810Z,1655
2017-03-17T09:25:08.155Z,1570
2017-03-17T09:26:09.420Z,1305
2017-03-17T09:27:10.653Z,1525
2017-03-17T09:28:11.901Z,1500
2017-03-17T09:29:13.181Z,1505
2017-03-17T09:30:14.511Z,960
2017-03-17T09:31:15.773Z,1270
2017-03-17T09:32:16.990Z,1565
2017-03-17T09:33:18.270Z,1185
2017-03-17T09:34:19.521Z,1485
2017-03-17T09:35:20.797Z,1460
2017-03-17T09:36:22.052Z,1520
2017-03-17T09:37:23.336Z,1565
2017-03-17T09:38:24.552Z,1165
2017-03-17T09:39:25.812Z,1575
2017-03-17T09:40:27.074Z,1620
2017-03-17T09:41:28.338Z,1400
2017-03-17T09:42:29.592Z,930
2017-03-17T09:43:30.873Z,2030
2017-03-17T09:44:32.141Z,1190
2017-03-17T09:45:33.403Z,1120
2017-03-17T09:46:34.700Z,1520
2017-03-17T09:47:35.978Z,1565
2017-03-17T09:48:37.234Z,1530
2017-03-17T09:49:38.546Z,1580
2017-03-17T09:50:39.882Z,775
2017-03-17T09:51:41.115Z,2645
2017-03-17T09:52:42.372Z,980
2017-03-17T09:53:43.636Z,2270
2017-03-17T09:54:44.904Z,1075
2017-03-17T09:55:46.169Z,985
2017-03-17T09:56:47.419Z,950
2017-03-17T09:57:48.670Z,1000
2017-03-17T09:58:49.918Z,890
2017-03-17T09:59:51.168Z,920
2017-03-17T10:00:52.431Z,1265
2017-03-17T10:01:53.702Z,1095
2017-03-17T10:02:55.034Z,820
2017-03-17T10:03:56.274Z,870
2017-03-17T10:04:57.525Z,930
2017-03-17T10:05:58.799Z,870
2017-03-17T10:07:00.023Z,950
2017-03-17T10:08:01.289Z,1045
2017-03-17T10:09:02.527Z,1055
2017-03-17T10:10:03.783Z,975
2017-03-17T10:11:05.077Z,1140
2017-03-17T10:12:06.326Z,1175
2017-03-17T10:13:07.590Z,990
2017-03-17T10:14:08.961Z,920
2017-03-17T10:15:10.211Z,1040
2017-03-17T10:16:11.473Z,955
2017-03-17T10:17:12.781Z,1010
2017-03-17T10:18:14.059Z,1140
2017-03-17T10:19:15.293Z,1815
2017-03-17T10:20:16.558Z,1360
2017-03-17T10:21:17.825Z,1485
2017-03-17T10:22:19.085Z,1835
2017-03-17T10:23:20.383Z,2485
2017-03-17T10:24:21.654Z,2400
2017-03-17T10:25:22.886Z,2175
2017-03-17T10:26:24.153Z,1970
2017-03-17T10:27:25.387Z,1400
2017-03-17T10:28:26.735Z,1155
2017-03-17T10:29:27.982Z,945
2017-03-17T10:30:29.239Z,875
2017-03-17T10:31:30.554Z,765
2017-03-17T10:32:31.797Z,695
2017-03-17T10:33:33.174Z,655
2017-03-17T10:34:34.433Z,605
2017-03-17T10:35:35.684Z,570
2017-03-17T10:36:36.954Z,535
2017-03-17T10:37:38.196Z,515
2017-03-17T10:38:39.454Z,510
2017-03-17T10:39:40.722Z,505
2017-03-17T10:40:41.987Z,470
2017-03-17T10:41:43.278Z,455
2017-03-17T10:42:44.523Z,460
2017-03-17T10:43:45.792Z,460
2017-03-17T10:44:47.037Z,445
2017-03-17T10:45:48.405Z,445
2017-03-17T10:46:49.672Z,450
2017-03-17T10:47:50.916Z,460
2017-03-17T10:48:52.161Z,460
2017-03-17T10:49:53.404Z,465
2017-03-17T10:50:54.749Z,460
2017-03-17T10:51:55.983Z,450
2017-03-17T10:52:57.292Z,430
2017-03-17T10:53:58.590Z,410
2017-03-17T10:54:59.838Z,405
2017-03-17T10:56:01.090Z,385
2017-03-17T10:57:02.328Z,370
2017-03-17T10:58:03.567Z,355
2017-03-17T10:59:04.820Z,355
2017-03-17T11:00:06.060Z,355
2017-03-17T11:01:07.310Z,340
2017-03-17T11:02:08.597Z,365
2017-03-17T11:03:09.843Z,370
2017-03-17T11:04:11.149Z,380
2017-03-17T11:05:12.450Z,395
2017-03-17T11:06:13.682Z,395
2017-03-17T11:07:14.944Z,395
2017-03-17T11:08:16.207Z,385
2017-03-17T11:09:17.449Z,370
2017-03-17T11:10:18.694Z,365
2017-03-17T11:11:19.947Z,345
2017-03-17T11:12:21.209Z,360
2017-03-17T11:13:22.496Z,370
2017-03-17T11:14:23.746Z,365
2017-03-17T11:15:24.994Z,365
2017-03-17T11:16:26.398Z,370
2017-03-17T11:17:27.681Z,365
2017-03-17T11:18:28.894Z,365
2017-03-17T11:19:30.136Z,345
2017-03-17T11:20:31.395Z,325
2017-03-17T11:21:32.687Z,340
2017-03-17T11:22:33.951Z,320
2017-03-17T11:23:35.169Z,345
2017-03-17T11:24:36.442Z,340
2017-03-17T11:25:37.729Z,330
2017-03-17T11:26:38.969Z,345
2017-03-17T11:27:40.245Z,310
2017-03-17T11:28:41.493Z,295
2017-03-17T11:29:42.739Z,255
2017-03-17T11:30:44.011Z,235
2017-03-17T11:31:45.240Z,245
2017-03-17T11:32:46.469Z,270
2017-03-17T11:33:47.716Z,340
2017-03-17T11:34:48.964Z,385
2017-03-17T11:35:50.260Z,410
2017-03-17T11:36:51.581Z,435
2017-03-17T11:37:52.823Z,450
2017-03-17T11:38:54.087Z,460
2017-03-17T11:39:55.328Z,470
2017-03-17T11:40:56.603Z,460
2017-03-17T11:41:57.803Z,445
2017-03-17T11:42:59.053Z,425
2017-03-17T11:44:00.300Z,405
2017-03-17T11:45:01.548Z,380
2017-03-17T11:46:02.802Z,375
2017-03-17T11:47:04.066Z,370
2017-03-17T11:48:05.310Z,370
2017-03-17T11:49:06.598Z,375
2017-03-17T11:50:07.877Z,385
2017-03-17T11:51:09.132Z,410
2017-03-17T11:52:10.373Z,435
2017-03-17T11:53:11.613Z,465
2017-03-17T11:54:12.863Z,485
2017-03-17T11:55:14.210Z,505
2017-03-17T11:56:15.462Z,525
2017-03-17T11:57:16.706Z,530
2017-03-17T11:58:17.952Z,515
2017-03-17T11:59:19.206Z,470
2017-03-17T12:00:20.533Z,475
2017-03-17T12:01:21.833Z,480
2017-03-17T12:02:23.067Z,485
2017-03-17T12:03:24.329Z,485
2017-03-17T12:04:25.563Z,485
2017-03-17T12:05:26.932Z,495
2017-03-17T12:06:28.258Z,490
2017-03-17T12:07:29.510Z,500
2017-03-17T12:08:30.761Z,500
2017-03-17T12:09:32.030Z,500
2017-03-17T12:10:33.261Z,500
2017-03-17T12:11:34.505Z,495
2017-03-17T12:12:35.788Z,480
2017-03-17T12:13:37.171Z,465
2017-03-17T12:14:38.414Z,445
2017-03-17T12:15:39.657Z,435
2017-03-17T12:16:41.068Z,435
2017-03-17T12:17:42.313Z,450
2017-03-17T12:18:43.563Z,465
2017-03-17T12:19:44.809Z,470
2017-03-17T12:20:46.054Z,470
2017-03-17T12:21:47.304Z,465
2017-03-17T12:22:48.551Z,465
2017-03-17T12:23:49.801Z,475
2017-03-17T12:24:51.068Z,480
2017-03-17T12:25:52.305Z,490
2017-03-17T12:26:53.574Z,475
2017-03-17T12:27:54.865Z,450
2017-03-17T12:28:56.108Z,470
2017-03-17T12:29:57.343Z,490
2017-03-17T12:30:58.662Z,470
2017-03-17T12:32:00.099Z,410
2017-03-17T12:33:01.283Z,440
2017-03-17T12:34:02.519Z,490
2017-03-17T12:35:03.758Z,505
2017-03-17T12:36:05.016Z,515
2017-03-17T12:37:06.415Z,525
2017-03-17T12:38:07.564Z,550
2017-03-17T12:39:08.819Z,555
2017-03-17T12:40:10.061Z,560
2017-03-17T12:41:11.314Z,560
2017-03-17T12:42:12.564Z,565
2017-03-17T12:43:13.816Z,565
2017-03-17T12:44:15.247Z,555
2017-03-17T12:45:16.499Z,545
2017-03-17T12:46:17.740Z,510
2017-03-17T12:47:18.998Z,460
2017-03-17T12:48:20.228Z,420
2017-03-17T12:49:21.483Z,390
2017-03-17T12:50:22.826Z,360
2017-03-17T12:51:24.181Z,355
2017-03-17T12:52:25.464Z,365
2017-03-17T12:53:26.728Z,375
2017-03-17T12:54:27.972Z,385
2017-03-17T12:55:29.227Z,385
2017-03-17T12:56:30.468Z,400
2017-03-17T12:57:31.726Z,440
2017-03-17T12:58:33.077Z,460
2017-03-17T12:59:34.334Z,460
2017-03-17T13:00:35.586Z,445
2017-03-17T13:01:37.024Z,435
2017-03-17T13:02:38.293Z,435
2017-03-17T13:03:39.537Z,415
2017-03-17T13:04:40.816Z,410
2017-03-17T13:05:42.085Z,420
2017-03-17T13:06:43.390Z,470
2017-03-17T13:07:44.684Z,535
2017-03-17T13:08:45.988Z,565
2017-03-17T13:09:47.278Z,570
2017-03-17T13:10:48.618Z,550
2017-03-17T13:11:49.894Z,525
2017-03-17T13:12:51.104Z,490
2017-03-17T13:13:52.396Z,490
2017-03-17T13:14:53.594Z,475
2017-03-17T13:15:54.908Z,445
2017-03-17T13:16:56.134Z,450
2017-03-17T13:17:57.373Z,490
2017-03-17T13:18:58.670Z,485
2017-03-17T13:19:59.865Z,435
2017-03-17T13:21:01.120Z,370
2017-03-17T13:22:02.371Z,275
2017-03-17T13:23:03.617Z,235
2017-03-17T13:24:04.870Z,260
2017-03-17T13:25:06.116Z,350
2017-03-17T13:26:07.361Z,345
2017-03-17T13:27:08.618Z,280
2017-03-17T13:28:09.857Z,290
2017-03-17T13:29:11.095Z,320
2017-03-17T13:30:12.341Z,360
2017-03-17T13:31:13.589Z,365
2017-03-17T13:32:14.883Z,360
2017-03-17T13:33:16.164Z,385
2017-03-17T13:34:17.463Z,380
2017-03-17T13:35:18.704Z,385
2017-03-17T13:36:19.947Z,400
2017-03-17T13:37:21.190Z,410
2017-03-17T13:38:22.526Z,395
2017-03-17T13:39:23.735Z,415
2017-03-17T13:40:25.026Z,425
2017-03-17T13:41:26.262Z,425
2017-03-17T13:42:27.514Z,415
2017-03-17T13:43:28.750Z,440
2017-03-17T13:44:30.023Z,460
2017-03-17T13:45:31.293Z,425
2017-03-17T13:46:32.594Z,420
2017-03-17T13:47:33.819Z,400
2017-03-17T13:48:35.088Z,380
2017-03-17T13:49:36.331Z,420
2017-03-17T13:50:37.567Z,440
2017-03-17T13:51:38.824Z,415
2017-03-17T13:52:40.102Z,350
2017-03-17T13:53:41.361Z,375
2017-03-17T13:54:42.666Z,380
2017-03-17T13:55:43.905Z,370
2017-03-17T13:56:45.155Z,360
2017-03-17T13:57:46.521Z,350
2017-03-17T13:58:47.772Z,350
2017-03-17T13:59:48.994Z,355
2017-03-17T14:00:50.238Z,360
2017-03-17T14:01:51.484Z,350
2017-03-17T14:02:52.770Z,340
2017-03-17T14:03:54.020Z,385
2017-03-17T14:04:55.350Z,405
2017-03-17T14:05:56.596Z,395
2017-03-17T14:06:57.833Z,390
2017-03-17T14:07:59.092Z,375
2017-03-17T14:09:00.336Z,360
2017-03-17T14:10:01.576Z,350
2017-03-17T14:11:02.823Z,340
2017-03-17T14:12:04.108Z,330
2017-03-17T14:13:05.347Z,320
2017-03-17T14:14:06.641Z,290
2017-03-17T14:15:07.902Z,270
2017-03-17T14:16:09.130Z,260
2017-03-17T14:17:10.455Z,250
2017-03-17T14:18:11.697Z,230
2017-03-17T14:19:13.053Z,235
2017-03-17T14:20:14.294Z,230
2017-03-17T14:21:15.533Z,235
2017-03-17T14:22:16.883Z,220
2017-03-17T14:23:18.142Z,225
2017-03-17T14:24:19.380Z,230
2017-03-17T14:25:20.607Z,230
2017-03-17T14:26:21.855Z,310
2017-03-17T14:27:23.094Z,290
2017-03-17T14:28:24.414Z,285